Glenwood, NJ (07418)

8:22 AM EDT on October 30, 2014 (GMT -0400)
RAWS WALLKILL QD NJ US | Change Station
CLOSE
Current Station
Personal Weather Station
Location: Glenwood, NJ
Elevation: 430 ft
Nearby Weather Stations

Elev 430 ft 41.27 °N, 74.53 °W | Updated 28 minutes ago

Fog
Fog
39 °F
Feels Like 39 °F
N
1
Wind Variable Wind from SW
Gusts 4.0 mph

Today
High -- | Low -- °F
--% Chance of Precip.
Yesterday
High -- | Low -- °F
Precip. -- in
7:26 AM 5:55 PM
Waxing Crescent, 43% visible
Pressure 30.01 in
Visibility 0.2 miles
Clouds
Windchill 39 °F
Dew Point 39 °F
Humidity 100%
Rainfall -999.00 in
Snow Depth Not available.
UV Not available.
Pollen .90 out of 12
Air Quality Not available.
Flu Activity Not available.
METAR KFWN 301153Z AUTO 22004KT 1/4SM FG VV002 06/04 A3000 RMK AO2 SLP160 70007 T00560044 10061 20056 51014

More Conditions Fewer Conditions

Pressure 30.01 in
Visibility 0.2 miles
Clouds
Windchill 39 °F
Dew Point 39 °F
Humidity 100%
Rainfall -999.00 in
Snow Depth Not available.
UV Not available.
Pollen .90 out of 12
Air Quality Not available.
Flu Activity Not available.
METAR KFWN 301153Z AUTO 22004KT 1/4SM FG VV002 06/04 A3000 RMK AO2 SLP160 70007 T00560044 10061 20056 51014

More Conditions Fewer Conditions

Nowcast | as of 7:58 am EDT on October 30, 2014

Patchy dense fog will continue to burn off as the morning wears on. Some areas may still see reduced visibilities under a half mile for a time this morning before conditions improve by late morning. Motorists should exercise caution for rapidly changing visibilities. Please allow extra time to reach your destination and use low beam headlights.

×

10-Day Weather Forecast

Almanac

Astronomy

Oct. 30, 2014 Rise Set
Actual Time
Civil Twilight
Nautical Twilight
Astronomical Twilight
Moon
Length of Visible Light
Length of Day
Tomorrow will be .
, % of the Moon is Illuminated

Today's Extremes

State Highs State Lows

Community

WunderPhotos

Upload Photos

1,766,351 photos uploaded!

WunderBlogs® & News

Nearby

Air Quality

  Air Quality AQ Index Pollutant
Not available.

Snow Depth

Station Depth Elevation

Earthquake Activity

City Distance Mag. Time & Date
Minimum magnitude displayed is 2.5.

Coastal Water Temperatures

Place Temperature

Nearby Weather Stations